sensor_id;sensor_type;location;lat;lon;timestamp;temperature;humidity
16116;DHT22;8162;47.104;15.432;2023-02-21T00:00:39;3.60;75.20
16116;DHT22;8162;47.104;15.432;2023-02-21T00:03:59;3.60;75.30
16116;DHT22;8162;47.104;15.432;2023-02-21T00:07:19;3.50;75.20
16116;DHT22;8162;47.104;15.432;2023-02-21T00:10:38;3.50;75.00
16116;DHT22;8162;47.104;15.432;2023-02-21T00:13:57;3.40;75.30
16116;DHT22;8162;47.104;15.432;2023-02-21T00:17:16;3.30;75.70
16116;DHT22;8162;47.104;15.432;2023-02-21T00:20:35;3.30;75.70
16116;DHT22;8162;47.104;15.432;2023-02-21T00:23:54;3.30;75.70
16116;DHT22;8162;47.104;15.432;2023-02-21T00:27:14;3.30;75.70
16116;DHT22;8162;47.104;15.432;2023-02-21T00:30:33;3.20;75.70
16116;DHT22;8162;47.104;15.432;2023-02-21T00:33:52;3.10;75.90
16116;DHT22;8162;47.104;15.432;2023-02-21T00:37:11;3.10;76.40
16116;DHT22;8162;47.104;15.432;2023-02-21T00:40:30;3.10;76.50
16116;DHT22;8162;47.104;15.432;2023-02-21T00:43:49;3.10;75.90
16116;DHT22;8162;47.104;15.432;2023-02-21T00:47:09;3.10;75.70
16116;DHT22;8162;47.104;15.432;2023-02-21T00:50:27;3.00;76.00
16116;DHT22;8162;47.104;15.432;2023-02-21T00:53:47;3.00;76.30
16116;DHT22;8162;47.104;15.432;2023-02-21T00:57:06;2.90;76.40
16116;DHT22;8162;47.104;15.432;2023-02-21T01:00:25;3.00;76.50
16116;DHT22;8162;47.104;15.432;2023-02-21T01:03:45;3.00;76.70
16116;DHT22;8162;47.104;15.432;2023-02-21T01:07:04;3.00;76.80
16116;DHT22;8162;47.104;15.432;2023-02-21T01:10:23;3.00;76.70
16116;DHT22;8162;47.104;15.432;2023-02-21T01:13:42;3.00;76.70
16116;DHT22;8162;47.104;15.432;2023-02-21T01:17:02;3.00;76.70
16116;DHT22;8162;47.104;15.432;2023-02-21T01:20:21;3.00;76.40
16116;DHT22;8162;47.104;15.432;2023-02-21T01:23:40;3.00;76.60
16116;DHT22;8162;47.104;15.432;2023-02-21T01:27:00;3.00;76.80
16116;DHT22;8162;47.104;15.432;2023-02-21T01:30:19;3.00;76.80
16116;DHT22;8162;47.104;15.432;2023-02-21T01:33:41;3.10;76.60
16116;DHT22;8162;47.104;15.432;2023-02-21T01:37:00;3.10;76.30
16116;DHT22;8162;47.104;15.432;2023-02-21T01:40:20;3.10;76.20
16116;DHT22;8162;47.104;15.432;2023-02-21T01:43:57;3.10;76.10
16116;DHT22;8162;47.104;15.432;2023-02-21T01:47:17;3.10;75.60
16116;DHT22;8162;47.104;15.432;2023-02-21T01:50:36;3.10;75.50
16116;DHT22;8162;47.104;15.432;2023-02-21T01:53:56;3.00;75.70
16116;DHT22;8162;47.104;15.432;2023-02-21T01:57:16;3.10;75.60
16116;DHT22;8162;47.104;15.432;2023-02-21T02:00:35;3.00;75.50
16116;DHT22;8162;47.104;15.432;2023-02-21T02:03:55;3.00;75.70
16116;DHT22;8162;47.104;15.432;2023-02-21T02:07:15;2.90;75.90
16116;DHT22;8162;47.104;15.432;2023-02-21T02:10:34;2.90;75.80
16116;DHT22;8162;47.104;15.432;2023-02-21T02:31:06;2.80;76.80
16116;DHT22;8162;47.104;15.432;2023-02-21T02:34:39;2.80;76.70
16116;DHT22;8162;47.104;15.432;2023-02-21T02:40:51;2.80;76.40
16116;DHT22;8162;47.104;15.432;2023-02-21T02:47:00;2.80;75.90
16116;DHT22;8162;47.104;15.432;2023-02-21T02:50:04;2.80;76.20
16116;DHT22;8162;47.104;15.432;2023-02-21T02:53:06;2.80;76.40
16116;DHT22;8162;47.104;15.432;2023-02-21T02:56:13;2.80;75.80
16116;DHT22;8162;47.104;15.432;2023-02-21T02:59:21;2.80;76.00
16116;DHT22;8162;47.104;15.432;2023-02-21T03:06:21;2.70;76.20
16116;DHT22;8162;47.104;15.432;2023-02-21T03:09:41;2.70;76.10
16116;DHT22;8162;47.104;15.432;2023-02-21T03:12:54;2.70;75.70
16116;DHT22;8162;47.104;15.432;2023-02-21T03:16:15;2.70;75.90
16116;DHT22;8162;47.104;15.432;2023-02-21T03:19:25;2.70;76.00
16116;DHT22;8162;47.104;15.432;2023-02-21T03:22:27;2.60;76.10
16116;DHT22;8162;47.104;15.432;2023-02-21T03:25:30;2.50;76.00
16116;DHT22;8162;47.104;15.432;2023-02-21T03:28:34;2.50;76.20
16116;DHT22;8162;47.104;15.432;2023-02-21T03:31:43;2.50;76.30
16116;DHT22;8162;47.104;15.432;2023-02-21T03:34:44;2.50;76.00
16116;DHT22;8162;47.104;15.432;2023-02-21T03:37:47;2.50;76.40
16116;DHT22;8162;47.104;15.432;2023-02-21T03:40:48;2.40;76.60
16116;DHT22;8162;47.104;15.432;2023-02-21T03:43:49;2.40;76.60
16116;DHT22;8162;47.104;15.432;2023-02-21T03:46:49;2.40;76.60
16116;DHT22;8162;47.104;15.432;2023-02-21T03:49:50;2.40;76.40
16116;DHT22;8162;47.104;15.432;2023-02-21T03:52:51;2.30;76.70
16116;DHT22;8162;47.104;15.432;2023-02-21T03:55:52;2.30;77.00
16116;DHT22;8162;47.104;15.432;2023-02-21T03:58:52;2.30;76.90
16116;DHT22;8162;47.104;15.432;2023-02-21T04:01:53;2.30;76.80
16116;DHT22;8162;47.104;15.432;2023-02-21T04:04:54;2.30;76.80
16116;DHT22;8162;47.104;15.432;2023-02-21T04:07:54;2.30;76.90
16116;DHT22;8162;47.104;15.432;2023-02-21T04:10:55;2.30;76.80
16116;DHT22;8162;47.104;15.432;2023-02-21T04:13:56;2.30;76.90
16116;DHT22;8162;47.104;15.432;2023-02-21T04:16:56;2.30;76.80
16116;DHT22;8162;47.104;15.432;2023-02-21T04:19:57;2.30;76.30
16116;DHT22;8162;47.104;15.432;2023-02-21T04:22:58;2.30;76.40
16116;DHT22;8162;47.104;15.432;2023-02-21T04:25:58;2.20;76.60
16116;DHT22;8162;47.104;15.432;2023-02-21T04:29:00;2.20;76.80
16116;DHT22;8162;47.104;15.432;2023-02-21T04:32:01;2.20;76.70
16116;DHT22;8162;47.104;15.432;2023-02-21T04:35:02;2.20;76.70
16116;DHT22;8162;47.104;15.432;2023-02-21T04:38:03;2.20;76.80
16116;DHT22;8162;47.104;15.432;2023-02-21T04:41:04;2.20;76.70
16116;DHT22;8162;47.104;15.432;2023-02-21T04:44:05;2.30;75.90
16116;DHT22;8162;47.104;15.432;2023-02-21T04:47:06;2.30;75.70
16116;DHT22;8162;47.104;15.432;2023-02-21T04:50:28;2.20;75.70
16116;DHT22;8162;47.104;15.432;2023-02-21T04:53:29;2.20;75.80
16116;DHT22;8162;47.104;15.432;2023-02-21T04:56:30;2.20;75.50
16116;DHT22;8162;47.104;15.432;2023-02-21T04:59:31;2.20;75.80
16116;DHT22;8162;47.104;15.432;2023-02-21T05:02:33;2.10;76.00
16116;DHT22;8162;47.104;15.432;2023-02-21T05:05:33;2.10;76.30
16116;DHT22;8162;47.104;15.432;2023-02-21T05:08:37;2.00;76.20
16116;DHT22;8162;47.104;15.432;2023-02-21T05:11:38;2.00;76.50
16116;DHT22;8162;47.104;15.432;2023-02-21T05:14:38;2.00;76.50
16116;DHT22;8162;47.104;15.432;2023-02-21T05:17:40;2.00;76.20
16116;DHT22;8162;47.104;15.432;2023-02-21T05:20:40;1.90;76.70
16116;DHT22;8162;47.104;15.432;2023-02-21T05:23:41;1.80;76.90
16116;DHT22;8162;47.104;15.432;2023-02-21T05:26:42;1.80;77.10
16116;DHT22;8162;47.104;15.432;2023-02-21T05:29:51;1.80;77.00
16116;DHT22;8162;47.104;15.432;2023-02-21T05:32:52;1.80;76.50
16116;DHT22;8162;47.104;15.432;2023-02-21T05:35:52;1.90;76.60
16116;DHT22;8162;47.104;15.432;2023-02-21T05:38:54;1.90;76.20
16116;DHT22;8162;47.104;15.432;2023-02-21T05:41:55;1.90;76.00
16116;DHT22;8162;47.104;15.432;2023-02-21T05:44:56;1.90;76.40
16116;DHT22;8162;47.104;15.432;2023-02-21T05:47:57;1.80;76.50
16116;DHT22;8162;47.104;15.432;2023-02-21T05:51:00;1.80;76.60
16116;DHT22;8162;47.104;15.432;2023-02-21T05:54:00;1.80;76.40
16116;DHT22;8162;47.104;15.432;2023-02-21T05:57:01;1.80;76.50
16116;DHT22;8162;47.104;15.432;2023-02-21T06:00:02;1.80;76.50
16116;DHT22;8162;47.104;15.432;2023-02-21T06:03:03;1.90;75.90
16116;DHT22;8162;47.104;15.432;2023-02-21T06:06:04;1.80;75.70
16116;DHT22;8162;47.104;15.432;2023-02-21T06:09:06;1.70;76.00
16116;DHT22;8162;47.104;15.432;2023-02-21T06:12:06;1.70;76.30
16116;DHT22;8162;47.104;15.432;2023-02-21T06:15:08;1.70;76.40
16116;DHT22;8162;47.104;15.432;2023-02-21T06:18:15;1.70;76.50
16116;DHT22;8162;47.104;15.432;2023-02-21T06:21:16;1.70;76.50
16116;DHT22;8162;47.104;15.432;2023-02-21T06:24:16;1.70;76.50
16116;DHT22;8162;47.104;15.432;2023-02-21T06:27:17;1.70;76.50
16116;DHT22;8162;47.104;15.432;2023-02-21T06:30:18;1.70;76.60
16116;DHT22;8162;47.104;15.432;2023-02-21T06:33:19;1.80;76.60
16116;DHT22;8162;47.104;15.432;2023-02-21T06:36:22;1.80;76.80
16116;DHT22;8162;47.104;15.432;2023-02-21T06:39:23;1.90;76.90
16116;DHT22;8162;47.104;15.432;2023-02-21T06:42:24;1.90;76.90
16116;DHT22;8162;47.104;15.432;2023-02-21T06:45:24;2.10;76.10
16116;DHT22;8162;47.104;15.432;2023-02-21T06:48:25;2.20;75.10
16116;DHT22;8162;47.104;15.432;2023-02-21T06:51:26;2.30;75.10
16116;DHT22;8162;47.104;15.432;2023-02-21T06:54:28;2.40;74.80
16116;DHT22;8162;47.104;15.432;2023-02-21T06:57:29;2.40;74.50
16116;DHT22;8162;47.104;15.432;2023-02-21T07:00:30;2.50;74.30
16116;DHT22;8162;47.104;15.432;2023-02-21T07:03:31;2.50;74.10
16116;DHT22;8162;47.104;15.432;2023-02-21T07:06:31;2.60;74.00
16116;DHT22;8162;47.104;15.432;2023-02-21T07:09:32;2.70;74.00
16116;DHT22;8162;47.104;15.432;2023-02-21T07:12:33;2.80;73.60
16116;DHT22;8162;47.104;15.432;2023-02-21T07:15:34;3.00;74.00
16116;DHT22;8162;47.104;15.432;2023-02-21T07:18:34;3.10;73.60
16116;DHT22;8162;47.104;15.432;2023-02-21T07:21:35;3.30;73.20
16116;DHT22;8162;47.104;15.432;2023-02-21T07:24:36;3.40;73.00
16116;DHT22;8162;47.104;15.432;2023-02-21T07:27:37;3.50;71.70
16116;DHT22;8162;47.104;15.432;2023-02-21T07:30:38;3.60;70.70
16116;DHT22;8162;47.104;15.432;2023-02-21T07:33:38;3.70;71.20
16116;DHT22;8162;47.104;15.432;2023-02-21T07:36:39;3.70;70.70
16116;DHT22;8162;47.104;15.432;2023-02-21T07:39:40;3.90;69.50
16116;DHT22;8162;47.104;15.432;2023-02-21T07:42:41;3.90;70.00
16116;DHT22;8162;47.104;15.432;2023-02-21T07:45:47;4.00;69.70
16116;DHT22;8162;47.104;15.432;2023-02-21T07:48:48;4.00;69.60
16116;DHT22;8162;47.104;15.432;2023-02-21T07:51:49;4.10;69.30
16116;DHT22;8162;47.104;15.432;2023-02-21T07:54:50;4.10;69.10
16116;DHT22;8162;47.104;15.432;2023-02-21T07:57:51;4.10;69.00
16116;DHT22;8162;47.104;15.432;2023-02-21T08:00:51;4.20;68.60
16116;DHT22;8162;47.104;15.432;2023-02-21T08:03:54;4.20;68.70
16116;DHT22;8162;47.104;15.432;2023-02-21T08:06:59;4.30;67.80
16116;DHT22;8162;47.104;15.432;2023-02-21T08:10:00;4.40;68.20
16116;DHT22;8162;47.104;15.432;2023-02-21T08:13:01;4.50;67.70
16116;DHT22;8162;47.104;15.432;2023-02-21T08:16:02;4.50;67.90
16116;DHT22;8162;47.104;15.432;2023-02-21T08:19:03;4.70;67.50
16116;DHT22;8162;47.104;15.432;2023-02-21T08:22:05;4.80;67.10
16116;DHT22;8162;47.104;15.432;2023-02-21T08:25:06;4.90;66.70
16116;DHT22;8162;47.104;15.432;2023-02-21T08:28:06;5.00;66.50
16116;DHT22;8162;47.104;15.432;2023-02-21T08:31:07;5.10;65.10
16116;DHT22;8162;47.104;15.432;2023-02-21T08:34:08;5.30;64.50
16116;DHT22;8162;47.104;15.432;2023-02-21T08:37:09;5.50;64.90
16116;DHT22;8162;47.104;15.432;2023-02-21T08:40:19;5.50;64.50
16116;DHT22;8162;47.104;15.432;2023-02-21T08:43:20;5.80;64.40
16116;DHT22;8162;47.104;15.432;2023-02-21T08:46:21;5.90;64.10
16116;DHT22;8162;47.104;15.432;2023-02-21T08:49:21;6.10;62.50
16116;DHT22;8162;47.104;15.432;2023-02-21T08:52:22;6.40;61.00
16116;DHT22;8162;47.104;15.432;2023-02-21T08:55:23;6.60;59.60
16116;DHT22;8162;47.104;15.432;2023-02-21T08:58:24;6.80;59.50
16116;DHT22;8162;47.104;15.432;2023-02-21T09:01:30;7.00;58.80
16116;DHT22;8162;47.104;15.432;2023-02-21T09:04:34;7.20;58.80
16116;DHT22;8162;47.104;15.432;2023-02-21T09:07:35;7.40;57.90
16116;DHT22;8162;47.104;15.432;2023-02-21T09:10:36;7.60;57.10
16116;DHT22;8162;47.104;15.432;2023-02-21T09:13:36;7.90;56.50
16116;DHT22;8162;47.104;15.432;2023-02-21T09:16:37;8.20;55.20
16116;DHT22;8162;47.104;15.432;2023-02-21T09:19:38;8.50;54.00
16116;DHT22;8162;47.104;15.432;2023-02-21T09:22:42;8.60;53.90
16116;DHT22;8162;47.104;15.432;2023-02-21T09:25:44;8.80;54.00
16116;DHT22;8162;47.104;15.432;2023-02-21T09:28:45;9.00;53.70
16116;DHT22;8162;47.104;15.432;2023-02-21T09:31:46;9.10;53.10
16116;DHT22;8162;47.104;15.432;2023-02-21T09:34:47;9.30;53.10
16116;DHT22;8162;47.104;15.432;2023-02-21T09:37:47;9.60;52.00
16116;DHT22;8162;47.104;15.432;2023-02-21T09:40:57;9.80;50.80
16116;DHT22;8162;47.104;15.432;2023-02-21T09:44:00;10.10;50.20
16116;DHT22;8162;47.104;15.432;2023-02-21T09:47:04;10.20;50.80
16116;DHT22;8162;47.104;15.432;2023-02-21T09:50:11;10.30;50.80
16116;DHT22;8162;47.104;15.432;2023-02-21T09:53:18;10.30;50.30
16116;DHT22;8162;47.104;15.432;2023-02-21T09:56:28;10.40;49.40
16116;DHT22;8162;47.104;15.432;2023-02-21T09:59:29;10.70;47.70
16116;DHT22;8162;47.104;15.432;2023-02-21T10:03:15;10.90;48.30
16116;DHT22;8162;47.104;15.432;2023-02-21T10:06:47;11.10;47.40
16116;DHT22;8162;47.104;15.432;2023-02-21T10:10:00;11.30;47.40
16116;DHT22;8162;47.104;15.432;2023-02-21T10:20:21;11.80;46.00
16116;DHT22;8162;47.104;15.432;2023-02-21T10:23:34;12.10;43.80
16116;DHT22;8162;47.104;15.432;2023-02-21T10:26:38;12.20;43.20
16116;DHT22;8162;47.104;15.432;2023-02-21T10:29:59;12.50;42.50
16116;DHT22;8162;47.104;15.432;2023-02-21T10:33:02;12.70;41.40
16116;DHT22;8162;47.104;15.432;2023-02-21T10:36:11;12.90;41.50
16116;DHT22;8162;47.104;15.432;2023-02-21T10:39:16;13.00;41.50
16116;DHT22;8162;47.104;15.432;2023-02-21T10:42:39;13.20;42.20
16116;DHT22;8162;47.104;15.432;2023-02-21T10:46:09;13.30;41.60
16116;DHT22;8162;47.104;15.432;2023-02-21T10:49:30;13.40;42.90
16116;DHT22;8162;47.104;15.432;2023-02-21T10:52:36;13.50;42.70
16116;DHT22;8162;47.104;15.432;2023-02-21T10:55:37;13.60;42.50
16116;DHT22;8162;47.104;15.432;2023-02-21T10:58:39;13.90;41.30
16116;DHT22;8162;47.104;15.432;2023-02-21T11:01:44;13.90;41.60
16116;DHT22;8162;47.104;15.432;2023-02-21T11:04:46;14.00;41.60
16116;DHT22;8162;47.104;15.432;2023-02-21T11:10:59;14.30;39.90
16116;DHT22;8162;47.104;15.432;2023-02-21T11:14:24;14.30;38.70
16116;DHT22;8162;47.104;15.432;2023-02-21T11:17:27;14.50;37.90
16116;DHT22;8162;47.104;15.432;2023-02-21T11:20:28;14.60;36.70
16116;DHT22;8162;47.104;15.432;2023-02-21T11:23:30;14.70;37.30
16116;DHT22;8162;47.104;15.432;2023-02-21T11:26:51;14.80;35.10
16116;DHT22;8162;47.104;15.432;2023-02-21T11:29:53;14.80;36.30
16116;DHT22;8162;47.104;15.432;2023-02-21T11:32:55;14.90;35.50
16116;DHT22;8162;47.104;15.432;2023-02-21T11:36:13;15.00;36.50
16116;DHT22;8162;47.104;15.432;2023-02-21T11:39:18;15.20;36.60
16116;DHT22;8162;47.104;15.432;2023-02-21T11:42:31;15.40;34.10
16116;DHT22;8162;47.104;15.432;2023-02-21T11:45:33;15.60;35.50
16116;DHT22;8162;47.104;15.432;2023-02-21T11:49:04;15.80;34.00
16116;DHT22;8162;47.104;15.432;2023-02-21T11:52:10;16.00;35.90
16116;DHT22;8162;47.104;15.432;2023-02-21T11:55:18;16.40;35.50
16116;DHT22;8162;47.104;15.432;2023-02-21T11:58:25;16.60;34.80
16116;DHT22;8162;47.104;15.432;2023-02-21T12:08:41;17.30;36.30
16116;DHT22;8162;47.104;15.432;2023-02-21T12:15:17;17.80;33.60
16116;DHT22;8162;47.104;15.432;2023-02-21T12:25:15;18.70;32.20
16116;DHT22;8162;47.104;15.432;2023-02-21T12:28:53;18.90;32.20
16116;DHT22;8162;47.104;15.432;2023-02-21T12:51:21;20.30;29.60
16116;DHT22;8162;47.104;15.432;2023-02-21T12:58:00;20.50;29.80
16116;DHT22;8162;47.104;15.432;2023-02-21T13:01:12;20.50;28.70
16116;DHT22;8162;47.104;15.432;2023-02-21T13:04:36;20.70;28.60
16116;DHT22;8162;47.104;15.432;2023-02-21T13:07:44;20.90;30.00
16116;DHT22;8162;47.104;15.432;2023-02-21T13:11:13;21.10;29.40
16116;DHT22;8162;47.104;15.432;2023-02-21T13:14:22;21.40;29.10
16116;DHT22;8162;47.104;15.432;2023-02-21T13:17:24;21.70;27.40
16116;DHT22;8162;47.104;15.432;2023-02-21T13:20:30;21.80;26.80
16116;DHT22;8162;47.104;15.432;2023-02-21T13:27:36;22.30;25.80
16116;DHT22;8162;47.104;15.432;2023-02-21T13:30:41;22.60;26.60
16116;DHT22;8162;47.104;15.432;2023-02-21T13:33:55;22.80;24.70
16116;DHT22;8162;47.104;15.432;2023-02-21T13:37:03;23.00;24.60
16116;DHT22;8162;47.104;15.432;2023-02-21T13:40:15;23.20;24.30
16116;DHT22;8162;47.104;15.432;2023-02-21T13:43:29;23.20;25.10
16116;DHT22;8162;47.104;15.432;2023-02-21T13:49:52;23.30;24.60
16116;DHT22;8162;47.104;15.432;2023-02-21T13:56:14;23.60;23.70
16116;DHT22;8162;47.104;15.432;2023-02-21T14:02:28;23.60;24.70
16116;DHT22;8162;47.104;15.432;2023-02-21T14:08:59;24.20;24.10
16116;DHT22;8162;47.104;15.432;2023-02-21T14:12:01;24.60;23.90
16116;DHT22;8162;47.104;15.432;2023-02-21T14:15:05;24.90;23.20
16116;DHT22;8162;47.104;15.432;2023-02-21T14:18:26;25.60;23.30
16116;DHT22;8162;47.104;15.432;2023-02-21T14:21:47;26.60;22.20
16116;DHT22;8162;47.104;15.432;2023-02-21T14:24:50;28.40;22.10
16116;DHT22;8162;47.104;15.432;2023-02-21T14:27:52;28.90;20.40
16116;DHT22;8162;47.104;15.432;2023-02-21T14:31:01;28.90;21.00
16116;DHT22;8162;47.104;15.432;2023-02-21T14:34:02;28.50;20.70
16116;DHT22;8162;47.104;15.432;2023-02-21T14:43:51;29.40;20.00
16116;DHT22;8162;47.104;15.432;2023-02-21T14:50:52;28.60;20.40
16116;DHT22;8162;47.104;15.432;2023-02-21T15:10:44;30.50;19.30
16116;DHT22;8162;47.104;15.432;2023-02-21T15:13:45;30.10;19.30
16116;DHT22;8162;47.104;15.432;2023-02-21T15:16:46;29.50;19.60
16116;DHT22;8162;47.104;15.432;2023-02-21T15:19:47;28.90;20.50
16116;DHT22;8162;47.104;15.432;2023-02-21T15:23:14;28.70;20.80
16116;DHT22;8162;47.104;15.432;2023-02-21T15:26:27;28.90;20.40
16116;DHT22;8162;47.104;15.432;2023-02-21T15:29:30;28.20;21.30
16116;DHT22;8162;47.104;15.432;2023-02-21T15:32:31;27.90;21.20
16116;DHT22;8162;47.104;15.432;2023-02-21T15:35:35;27.20;20.70
16116;DHT22;8162;47.104;15.432;2023-02-21T15:38:41;26.60;21.30
16116;DHT22;8162;47.104;15.432;2023-02-21T15:41:48;25.90;22.00
16116;DHT22;8162;47.104;15.432;2023-02-21T15:44:55;25.00;23.00
16116;DHT22;8162;47.104;15.432;2023-02-21T15:47:58;24.70;23.40
16116;DHT22;8162;47.104;15.432;2023-02-21T15:51:02;24.20;23.80
16116;DHT22;8162;47.104;15.432;2023-02-21T15:57:23;23.00;24.50
16116;DHT22;8162;47.104;15.432;2023-02-21T16:00:29;22.30;25.30
16116;DHT22;8162;47.104;15.432;2023-02-21T16:03:41;21.60;25.50
16116;DHT22;8162;47.104;15.432;2023-02-21T16:06:50;21.00;26.20
16116;DHT22;8162;47.104;15.432;2023-02-21T16:09:59;20.50;26.60
16116;DHT22;8162;47.104;15.432;2023-02-21T16:13:00;20.00;27.50
16116;DHT22;8162;47.104;15.432;2023-02-21T16:16:01;19.70;29.00
16116;DHT22;8162;47.104;15.432;2023-02-21T16:19:03;19.50;29.40
16116;DHT22;8162;47.104;15.432;2023-02-21T16:25:23;18.60;30.30
16116;DHT22;8162;47.104;15.432;2023-02-21T16:28:25;18.10;31.50
16116;DHT22;8162;47.104;15.432;2023-02-21T16:31:31;17.60;32.00
16116;DHT22;8162;47.104;15.432;2023-02-21T16:34:33;17.20;33.00
16116;DHT22;8162;47.104;15.432;2023-02-21T16:37:34;16.90;33.20
16116;DHT22;8162;47.104;15.432;2023-02-21T16:40:35;16.50;33.70
16116;DHT22;8162;47.104;15.432;2023-02-21T16:43:36;16.30;34.40
16116;DHT22;8162;47.104;15.432;2023-02-21T16:46:37;15.80;35.40
16116;DHT22;8162;47.104;15.432;2023-02-21T16:49:38;15.60;35.70
16116;DHT22;8162;47.104;15.432;2023-02-21T16:52:38;15.40;36.10
16116;DHT22;8162;47.104;15.432;2023-02-21T16:55:40;15.20;36.60
